createdAt,value
2022-08-07T00:01:27.326Z,82
2022-08-07T00:03:03.667Z,82.5
2022-08-07T00:04:39.023Z,82
2022-08-07T00:06:15.343Z,82
2022-08-07T00:07:51.702Z,82
2022-08-07T00:11:04.329Z,82
2022-08-07T00:12:40.662Z,82
2022-08-07T00:14:17.002Z,82.5
2022-08-07T00:15:53.359Z,82.5
2022-08-07T00:17:29.661Z,83.5
2022-08-07T00:19:06.003Z,84
2022-08-07T00:20:42.327Z,84
2022-08-07T00:22:18.658Z,85
2022-08-07T00:23:54.982Z,85
2022-08-07T00:25:30.328Z,85.5
2022-08-07T00:27:06.663Z,85.5
2022-08-07T00:28:42.022Z,85.5
2022-08-07T00:30:18.354Z,86
2022-08-07T00:31:54.680Z,86
2022-08-07T00:33:30.045Z,86
2022-08-07T00:35:05.378Z,86
2022-08-07T00:36:41.728Z,86.5
2022-08-07T00:38:18.075Z,87
2022-08-07T00:39:54.375Z,88
2022-08-07T00:41:30.708Z,88
2022-08-07T00:43:07.039Z,88
2022-08-07T00:44:43.367Z,88
2022-08-07T00:46:19.701Z,87.5
2022-08-07T00:47:56.030Z,87.5
2022-08-07T00:49:32.360Z,87.5
2022-08-07T00:51:08.701Z,87.5
2022-08-07T00:52:45.039Z,87
2022-08-07T00:54:21.366Z,87
2022-08-07T00:55:57.748Z,87
2022-08-07T00:57:33.038Z,87
2022-08-07T00:59:09.373Z,88
2022-08-07T01:00:45.693Z,88.5
2022-08-07T01:02:22.041Z,89.5
2022-08-07T01:03:58.353Z,90.5
2022-08-07T01:05:34.688Z,91
2022-08-07T01:07:10.050Z,91.5
2022-08-07T01:08:46.375Z,91.5
2022-08-07T01:10:21.743Z,91.5
2022-08-07T01:11:57.078Z,91.5
2022-08-07T01:13:32.426Z,91.5
2022-08-07T01:15:08.771Z,91.5
2022-08-07T01:16:45.138Z,91
2022-08-07T01:18:21.434Z,90
2022-08-07T01:19:57.751Z,90
2022-08-07T01:21:34.080Z,89
2022-08-07T01:23:10.427Z,87
2022-08-07T01:24:46.760Z,85.5
2022-08-07T01:26:23.094Z,84.5
2022-08-07T01:27:59.402Z,84.5
2022-08-07T01:29:35.736Z,85.5
2022-08-07T01:31:12.081Z,86
2022-08-07T01:32:48.426Z,87
2022-08-07T01:34:23.752Z,87.5
2022-08-07T01:36:00.097Z,88
2022-08-07T01:37:36.413Z,89
2022-08-07T01:39:12.747Z,89.5
2022-08-07T01:40:49.067Z,90
2022-08-07T01:42:25.421Z,90.5
2022-08-07T01:44:01.733Z,91
2022-08-07T01:45:37.095Z,91
2022-08-07T01:47:13.427Z,91.5
2022-08-07T01:48:48.789Z,91.5
2022-08-07T01:50:24.123Z,91.5
2022-08-07T01:52:00.455Z,91.5
2022-08-07T01:53:36.781Z,91.5
2022-08-07T01:55:13.137Z,91.5
2022-08-07T01:56:49.456Z,92
2022-08-07T01:58:25.799Z,92
2022-08-07T02:00:02.110Z,92
2022-08-07T02:01:38.452Z,91.5
2022-08-07T02:03:14.771Z,91.5
2022-08-07T02:04:51.106Z,91.5
2022-08-07T02:06:27.435Z,89
2022-08-07T02:08:03.761Z,88
2022-08-07T02:09:40.111Z,89
2022-08-07T02:11:15.444Z,89
2022-08-07T02:12:51.774Z,89.5
2022-08-07T02:14:28.108Z,89.5
2022-08-07T02:16:04.450Z,90
2022-08-07T02:17:40.763Z,90
2022-08-07T02:19:17.097Z,90.5
2022-08-07T02:20:53.429Z,91.5
2022-08-07T02:22:29.765Z,92.5
2022-08-07T02:24:06.117Z,92.5
2022-08-07T02:25:42.425Z,93
2022-08-07T02:27:18.779Z,92.5
2022-08-07T02:28:55.091Z,91
2022-08-07T02:30:31.434Z,90
2022-08-07T02:32:07.746Z,89.5
2022-08-07T02:33:43.103Z,88.5
2022-08-07T02:35:19.433Z,88
2022-08-07T02:36:54.811Z,88
2022-08-07T02:38:30.129Z,87.5
2022-08-07T02:40:06.459Z,87
2022-08-07T02:41:42.788Z,86.5
2022-08-07T02:43:18.142Z,86
2022-08-07T02:44:53.501Z,85.5
2022-08-07T02:46:29.852Z,84.5
2022-08-07T02:48:06.174Z,84.5
2022-08-07T02:49:42.488Z,84.5
2022-08-07T02:51:18.817Z,85
2022-08-07T02:52:55.153Z,86.5
2022-08-07T02:54:31.497Z,86.5
2022-08-07T02:56:07.813Z,86
2022-08-07T02:57:44.152Z,85.5
2022-08-07T02:59:20.477Z,85
2022-08-07T03:00:56.829Z,84
2022-08-07T03:02:33.139Z,83.5
2022-08-07T03:04:09.470Z,82.5
2022-08-07T03:05:44.808Z,82
2022-08-07T03:07:21.157Z,82
2022-08-07T03:08:57.493Z,81.5
2022-08-07T03:10:33.801Z,81.5
2022-08-07T03:12:10.132Z,81.5
2022-08-07T03:13:46.479Z,82.5
2022-08-07T03:15:22.798Z,83
2022-08-07T03:16:59.166Z,83.5
2022-08-07T03:18:35.458Z,84
2022-08-07T03:20:11.792Z,84.5
2022-08-07T03:21:48.118Z,85
2022-08-07T03:23:24.461Z,85.5
2022-08-07T03:25:00.806Z,85.5
2022-08-07T03:26:36.154Z,85
2022-08-07T03:28:12.483Z,85.5
2022-08-07T03:29:48.794Z,85.5
2022-08-07T03:31:25.135Z,85.5
2022-08-07T03:33:01.468Z,86
2022-08-07T03:34:37.794Z,86
2022-08-07T03:36:14.147Z,86
2022-08-07T03:37:50.453Z,86.5
2022-08-07T03:39:26.775Z,86.5
2022-08-07T03:41:03.102Z,87.5
2022-08-07T03:42:39.441Z,87.5
2022-08-07T03:44:15.801Z,88
2022-08-07T03:45:52.105Z,88
2022-08-07T03:47:27.451Z,88.5
2022-08-07T03:49:03.776Z,89
2022-08-07T03:50:39.132Z,89
2022-08-07T03:52:15.464Z,89
2022-08-07T03:53:51.800Z,89
2022-08-07T03:55:28.119Z,88.5
2022-08-07T03:57:04.457Z,89
2022-08-07T03:58:40.784Z,89
2022-08-07T04:00:17.113Z,89
2022-08-07T04:01:53.449Z,89
2022-08-07T04:03:29.798Z,89
2022-08-07T04:05:06.118Z,88.5
2022-08-07T04:06:42.438Z,88.5
2022-08-07T04:08:18.769Z,88
2022-08-07T04:09:55.108Z,88
2022-08-07T04:11:31.456Z,87.5
2022-08-07T04:13:06.798Z,87
2022-08-07T04:14:43.134Z,87
2022-08-07T04:16:19.442Z,86.5
2022-08-07T04:17:55.779Z,86.5
2022-08-07T04:19:32.099Z,86.5
2022-08-07T04:21:08.452Z,86
2022-08-07T04:22:44.762Z,86
2022-08-07T04:24:21.099Z,86
2022-08-07T04:25:57.463Z,85.5
2022-08-07T04:27:33.763Z,85.5
2022-08-07T04:29:10.100Z,85.5
2022-08-07T04:30:46.429Z,84.5
2022-08-07T04:32:22.748Z,84
2022-08-07T04:33:58.094Z,84.5
2022-08-07T04:35:34.433Z,84.5
2022-08-07T04:37:10.760Z,84.5
2022-08-07T04:38:47.113Z,83.5
2022-08-07T04:40:23.423Z,83.5
2022-08-07T04:41:59.749Z,84
2022-08-07T04:43:36.101Z,83.5
2022-08-07T04:45:12.421Z,84
2022-08-07T04:46:48.739Z,84
2022-08-07T04:48:25.070Z,83.5
2022-08-07T04:50:01.409Z,83.5
2022-08-07T04:51:37.756Z,83.5
2022-08-07T04:53:14.068Z,83.5
2022-08-07T04:54:49.426Z,83.5
2022-08-07T04:56:25.750Z,83.5
2022-08-07T04:58:06.888Z,83.5
2022-08-07T04:59:38.428Z,83.5
2022-08-07T05:01:14.755Z,83.5
2022-08-07T05:02:51.076Z,83.5
2022-08-07T05:04:27.414Z,83.5
2022-08-07T05:06:03.728Z,83.5
2022-08-07T05:07:40.059Z,84
2022-08-07T05:09:16.396Z,84
2022-08-07T05:10:52.732Z,83.5
2022-08-07T05:12:29.059Z,84
2022-08-07T05:14:05.382Z,83.5
2022-08-07T05:15:40.735Z,83.5
2022-08-07T05:17:17.061Z,83
2022-08-07T05:18:53.400Z,83
2022-08-07T05:20:29.735Z,82.5
2022-08-07T05:22:06.048Z,82.5
2022-08-07T05:23:42.390Z,82.5
2022-08-07T05:25:18.713Z,82
2022-08-07T05:26:55.067Z,82
2022-08-07T05:28:31.391Z,82
2022-08-07T05:30:07.714Z,82
2022-08-07T05:31:44.042Z,82
2022-08-07T05:33:20.368Z,82
2022-08-07T05:34:56.699Z,82
2022-08-07T05:36:33.031Z,81.5
2022-08-07T05:38:09.363Z,81.5
2022-08-07T05:39:44.707Z,81.5
2022-08-07T05:41:21.046Z,81
2022-08-07T05:42:57.382Z,81
2022-08-07T05:44:33.711Z,80.5
2022-08-07T05:46:10.047Z,81.5
2022-08-07T05:47:46.377Z,80.5
2022-08-07T05:49:22.694Z,80.5
2022-08-07T05:50:59.029Z,80.5
2022-08-07T05:52:35.370Z,80.5
2022-08-07T05:54:11.682Z,80.5
2022-08-07T05:55:48.019Z,80
2022-08-07T05:57:24.345Z,80.5
2022-08-07T05:59:00.682Z,80.5
2022-08-07T06:00:36.021Z,80
2022-08-07T06:02:12.363Z,80
2022-08-07T06:03:48.692Z,80
2022-08-07T06:05:25.022Z,80
2022-08-07T06:07:01.350Z,79
2022-08-07T06:08:37.686Z,79
2022-08-07T06:10:14.020Z,77.5
2022-08-07T06:11:50.353Z,77.5
2022-08-07T06:13:26.684Z,77
2022-08-07T06:15:03.006Z,76
2022-08-07T06:16:39.330Z,75
2022-08-07T06:18:15.682Z,75
2022-08-07T06:19:51.997Z,74.5
2022-08-07T06:21:27.357Z,74.5
2022-08-07T06:23:03.674Z,74
2022-08-07T06:24:40.002Z,74
2022-08-07T06:26:16.345Z,73.5
2022-08-07T06:27:52.667Z,73
2022-08-07T06:29:29.001Z,73
2022-08-07T06:31:05.325Z,73
2022-08-07T06:32:41.662Z,72.5
2022-08-07T06:34:17.991Z,73
2022-08-07T06:35:54.321Z,72.5
2022-08-07T06:37:30.657Z,72
2022-08-07T06:39:06.987Z,72
2022-08-07T06:40:43.315Z,71.5
2022-08-07T06:42:18.668Z,70.5
2022-08-07T06:43:54.992Z,70.5
2022-08-07T06:45:31.322Z,70
2022-08-07T06:47:07.648Z,68.5
2022-08-07T06:48:43.977Z,69
2022-08-07T06:50:20.329Z,69
2022-08-07T06:51:56.652Z,68
2022-08-07T06:53:32.973Z,69
2022-08-07T06:55:09.301Z,66.5
2022-08-07T06:56:45.634Z,66.5
2022-08-07T06:58:21.964Z,66
2022-08-07T06:59:58.295Z,66
2022-08-07T07:01:34.638Z,65
2022-08-07T07:03:09.966Z,65
2022-08-07T07:04:46.307Z,63.5
2022-08-07T07:06:22.638Z,63.5
2022-08-07T07:07:58.988Z,62.5
2022-08-07T07:09:35.296Z,63.5
2022-08-07T07:11:11.635Z,61.5
2022-08-07T07:12:47.967Z,61.5
2022-08-07T07:14:24.429Z,61.5
2022-08-07T07:16:00.623Z,61.5
2022-08-07T07:17:36.948Z,61
2022-08-07T07:19:13.283Z,60
2022-08-07T07:20:49.615Z,59.5
2022-08-07T07:22:25.953Z,59
2022-08-07T07:24:01.294Z,59.5
2022-08-07T07:25:37.622Z,60.5
2022-08-07T07:27:13.971Z,59.5
2022-08-07T07:28:50.281Z,59.5
2022-08-07T07:30:26.613Z,59
2022-08-07T07:32:02.943Z,58
2022-08-07T07:33:39.273Z,58
2022-08-07T07:35:15.602Z,59
2022-08-07T07:36:51.938Z,59.5
2022-08-07T07:38:28.262Z,58.5
2022-08-07T07:40:04.591Z,57
2022-08-07T07:41:40.925Z,58
2022-08-07T07:43:17.264Z,58.5
2022-08-07T07:44:52.615Z,58
2022-08-07T07:46:28.938Z,57.5
2022-08-07T07:48:05.276Z,57.5
2022-08-07T07:49:41.604Z,57.5
2022-08-07T07:51:17.932Z,58.5
2022-08-07T07:52:54.292Z,58.5
2022-08-07T07:54:30.598Z,58
2022-08-07T07:56:06.957Z,57
2022-08-07T07:57:43.287Z,57.5
2022-08-07T07:59:19.582Z,56.5
2022-08-07T08:00:55.941Z,56.5
2022-08-07T08:02:32.249Z,55
2022-08-07T08:04:08.573Z,54.5
2022-08-07T08:05:43.932Z,52.5
2022-08-07T08:07:20.256Z,55
2022-08-07T08:08:56.603Z,55
2022-08-07T08:10:32.913Z,55
2022-08-07T08:12:09.240Z,54.5
2022-08-07T08:13:45.585Z,54
2022-08-07T08:15:21.914Z,51.5
2022-08-07T08:16:58.238Z,52
2022-08-07T08:18:34.583Z,53
2022-08-07T08:20:10.907Z,53
2022-08-07T08:21:47.252Z,53
2022-08-07T08:23:23.564Z,51
2022-08-07T08:24:59.906Z,50.5
2022-08-07T08:26:35.273Z,50.5
2022-08-07T08:28:11.574Z,49
2022-08-07T08:29:47.903Z,49.5
2022-08-07T08:31:24.232Z,50
2022-08-07T08:33:00.559Z,47.5
2022-08-07T08:34:36.944Z,46.5
2022-08-07T08:36:13.236Z,47
2022-08-07T08:37:49.555Z,47
2022-08-07T08:39:25.883Z,47
2022-08-07T08:41:02.211Z,47.5
2022-08-07T08:42:38.559Z,47.5
2022-08-07T08:44:14.878Z,46
2022-08-07T08:45:51.215Z,45.5
2022-08-07T08:47:26.562Z,45.5
2022-08-07T08:49:02.899Z,43.5
2022-08-07T08:50:39.217Z,43
2022-08-07T08:52:15.553Z,43
2022-08-07T08:53:51.898Z,43.5
2022-08-07T08:55:28.212Z,42.5
2022-08-07T08:57:04.541Z,43.5
2022-08-07T08:58:40.875Z,44
2022-08-07T09:00:17.195Z,44
2022-08-07T09:01:53.528Z,42
2022-08-07T09:03:29.852Z,42
2022-08-07T09:05:06.195Z,41
2022-08-07T09:06:42.524Z,41
2022-08-07T09:08:17.885Z,41
2022-08-07T09:09:54.199Z,41.5
2022-08-07T09:11:30.522Z,41
2022-08-07T09:13:05.897Z,41.5
2022-08-07T09:14:42.218Z,42
2022-08-07T09:16:18.546Z,42
2022-08-07T09:17:54.878Z,41
2022-08-07T09:19:31.211Z,41
2022-08-07T09:21:07.547Z,41
2022-08-07T09:22:43.868Z,41.5
2022-08-07T09:24:20.205Z,41.5
2022-08-07T09:25:56.533Z,40.5
2022-08-07T09:27:32.852Z,40.5
2022-08-07T09:29:09.186Z,42
2022-08-07T09:30:45.539Z,41
2022-08-07T09:32:21.845Z,39.5
2022-08-07T09:33:57.218Z,39.5
2022-08-07T09:35:33.539Z,40.5
2022-08-07T09:37:09.864Z,41
2022-08-07T09:38:46.192Z,41.5
2022-08-07T09:40:22.524Z,40.5
2022-08-07T09:41:58.850Z,40.5
2022-08-07T09:43:35.185Z,40.5
2022-08-07T09:45:11.519Z,40.5
2022-08-07T09:46:47.843Z,40.5
2022-08-07T09:48:24.180Z,40.5
2022-08-07T09:50:00.501Z,40.5
2022-08-07T09:51:36.840Z,40
2022-08-07T09:53:13.203Z,40.5
2022-08-07T09:54:48.532Z,39.5
2022-08-07T09:56:24.865Z,39.5
2022-08-07T09:58:01.173Z,40
2022-08-07T09:59:37.524Z,40.5
2022-08-07T10:01:13.836Z,40.5
2022-08-07T10:02:50.165Z,41
2022-08-07T10:04:26.496Z,40.5
2022-08-07T10:06:02.827Z,40.5
2022-08-07T10:07:39.182Z,39.5
2022-08-07T10:09:15.501Z,39.5
2022-08-07T10:10:51.824Z,40
2022-08-07T10:12:28.153Z,39.5
2022-08-07T10:14:04.484Z,39.5
2022-08-07T10:15:39.836Z,39
2022-08-07T10:17:16.170Z,39.5
2022-08-07T10:18:52.496Z,39.5
2022-08-07T10:20:28.828Z,40
2022-08-07T10:22:05.156Z,39.5
2022-08-07T10:23:41.482Z,39.5
2022-08-07T10:25:17.814Z,39
2022-08-07T10:26:54.137Z,39
2022-08-07T10:28:30.476Z,40
2022-08-07T10:30:06.816Z,38
2022-08-07T10:31:43.141Z,38.5
2022-08-07T10:33:19.466Z,39
2022-08-07T10:34:55.794Z,39.5
2022-08-07T10:36:31.166Z,39.5
2022-08-07T10:38:07.478Z,39.5
2022-08-07T10:39:43.807Z,38.5
2022-08-07T10:41:20.135Z,39.5
2022-08-07T10:42:56.485Z,39.5
2022-08-07T10:44:32.789Z,39
2022-08-07T10:46:09.148Z,39
2022-08-07T10:47:45.463Z,39.5
2022-08-07T10:49:20.835Z,39.5
2022-08-07T10:50:56.171Z,39
2022-08-07T10:52:32.497Z,39.5
2022-08-07T10:54:08.818Z,40
2022-08-07T10:55:45.173Z,39.5
2022-08-07T10:57:21.491Z,40
2022-08-07T10:58:57.828Z,39.5
2022-08-07T11:00:34.153Z,39.5
2022-08-07T11:02:10.472Z,38.5
2022-08-07T11:03:46.820Z,38
2022-08-07T11:05:23.145Z,37.5
2022-08-07T11:06:59.469Z,37.5
2022-08-07T11:08:35.815Z,38.5
2022-08-07T11:10:12.139Z,38.5
2022-08-07T11:11:47.481Z,38.5
2022-08-07T11:13:23.814Z,38
2022-08-07T11:15:00.149Z,38.5
2022-08-07T11:16:36.473Z,38.5
2022-08-07T11:18:12.809Z,39
2022-08-07T11:19:49.158Z,38.5
2022-08-07T11:21:25.465Z,38.5
2022-08-07T11:23:01.810Z,39
2022-08-07T11:24:38.148Z,39.5
2022-08-07T11:26:14.457Z,40
2022-08-07T11:27:50.796Z,39.5
2022-08-07T11:29:27.131Z,38.5
2022-08-07T11:31:03.454Z,39.5
2022-08-07T11:32:38.795Z,40.5
2022-08-07T11:34:15.154Z,39.5
2022-08-07T11:35:51.466Z,40
2022-08-07T11:37:27.791Z,40
2022-08-07T11:39:04.126Z,39.5
2022-08-07T11:40:40.446Z,38.5
2022-08-07T11:42:16.786Z,39
2022-08-07T11:43:53.109Z,39.5
2022-08-07T11:45:29.453Z,39.5
2022-08-07T11:47:05.783Z,40.5
2022-08-07T11:48:42.113Z,40.5
2022-08-07T11:50:18.438Z,39.5
2022-08-07T11:51:54.771Z,39.5
2022-08-07T11:53:30.113Z,40
2022-08-07T11:55:06.440Z,40.5
2022-08-07T11:56:42.802Z,40.5
2022-08-07T11:58:19.108Z,40
2022-08-07T11:59:55.452Z,40
2022-08-07T12:01:31.769Z,40.5
2022-08-07T12:03:08.090Z,40
2022-08-07T12:04:44.428Z,40.5
2022-08-07T12:06:20.770Z,40
2022-08-07T12:07:57.097Z,39
2022-08-07T12:09:33.426Z,39.5
2022-08-07T12:11:09.751Z,39.5
2022-08-07T12:12:46.089Z,40
2022-08-07T12:14:21.452Z,39.5
2022-08-07T12:15:57.759Z,39.5
2022-08-07T12:17:34.112Z,39.5
2022-08-07T12:19:10.421Z,39.5
2022-08-07T12:20:46.753Z,40
2022-08-07T12:22:23.080Z,40
2022-08-07T12:23:59.413Z,39.5
2022-08-07T12:25:35.743Z,40
2022-08-07T12:27:12.074Z,39.5
2022-08-07T12:28:48.411Z,39.5
2022-08-07T12:32:01.057Z,39
2022-08-07T12:33:37.406Z,38.5
2022-08-07T12:35:13.749Z,38.5
2022-08-07T12:36:49.074Z,38.5
2022-08-07T12:38:25.402Z,38.5
2022-08-07T12:40:01.758Z,38
2022-08-07T12:41:38.062Z,38.5
2022-08-07T12:43:14.405Z,38.5
2022-08-07T12:44:50.768Z,38
2022-08-07T12:46:27.057Z,38.5
2022-08-07T12:48:03.396Z,38.5
2022-08-07T12:49:39.745Z,39
2022-08-07T12:51:16.057Z,39
2022-08-07T12:52:52.378Z,38
2022-08-07T12:54:28.713Z,38
2022-08-07T12:56:05.038Z,38
2022-08-07T12:57:40.384Z,38
2022-08-07T12:59:16.725Z,38
2022-08-07T13:00:53.060Z,38
2022-08-07T13:02:29.375Z,38
2022-08-07T13:04:05.709Z,38
2022-08-07T13:05:42.048Z,38
2022-08-07T13:07:18.392Z,37.5
2022-08-07T13:08:54.697Z,38.5
2022-08-07T13:10:31.030Z,38.5
2022-08-07T13:12:07.367Z,38
2022-08-07T13:13:43.700Z,38
2022-08-07T13:15:20.029Z,38
2022-08-07T13:16:56.374Z,38
2022-08-07T13:18:31.709Z,38
2022-08-07T13:20:08.038Z,37.5
2022-08-07T13:21:44.370Z,38
2022-08-07T13:23:20.698Z,37.5
2022-08-07T13:24:57.036Z,37.5
2022-08-07T13:26:33.368Z,38
2022-08-07T13:28:09.688Z,37.5
2022-08-07T13:29:46.026Z,37.5
2022-08-07T13:31:22.344Z,38
2022-08-07T13:32:58.683Z,37.5
2022-08-07T13:34:35.027Z,37.5
2022-08-07T13:36:11.342Z,37.5
2022-08-07T13:37:47.682Z,37.5
2022-08-07T13:39:23.016Z,37.5
2022-08-07T13:40:59.353Z,38
2022-08-07T13:42:35.678Z,38
2022-08-07T13:44:12.021Z,38
2022-08-07T13:45:48.341Z,38
2022-08-07T13:47:24.680Z,38
2022-08-07T13:49:01.014Z,37.5
2022-08-07T13:50:37.353Z,37.5
2022-08-07T13:52:13.683Z,37.5
2022-08-07T13:53:49.998Z,38
2022-08-07T13:55:26.330Z,37.5
2022-08-07T13:57:02.657Z,37.5
2022-08-07T13:58:38.992Z,37
2022-08-07T14:00:14.335Z,37.5
2022-08-07T14:01:50.667Z,36.5
2022-08-07T14:03:26.997Z,37
2022-08-07T14:05:03.348Z,37
2022-08-07T14:06:39.662Z,36
2022-08-07T14:08:16.021Z,36
2022-08-07T14:09:52.321Z,36
2022-08-07T14:11:28.660Z,36
2022-08-07T14:13:05.010Z,35.5
2022-08-07T14:14:41.321Z,35.5
2022-08-07T14:16:17.651Z,35.5
2022-08-07T14:17:53.976Z,35
2022-08-07T14:19:30.318Z,35
2022-08-07T14:21:05.650Z,35
2022-08-07T14:22:42.013Z,35.5
2022-08-07T14:24:18.336Z,35
2022-08-07T14:25:54.667Z,35
2022-08-07T14:27:30.979Z,35
2022-08-07T14:29:07.299Z,35
2022-08-07T14:30:43.637Z,35.5
2022-08-07T14:32:19.969Z,36
2022-08-07T14:33:56.321Z,36
2022-08-07T14:35:32.631Z,36
2022-08-07T14:37:08.961Z,36.5
2022-08-07T14:38:44.313Z,36
2022-08-07T14:40:20.667Z,36.5
2022-08-07T14:41:56.977Z,37.5
2022-08-07T14:43:33.308Z,37
2022-08-07T14:45:09.643Z,36.5
2022-08-07T14:46:45.966Z,36.5
2022-08-07T14:48:22.312Z,36.5
2022-08-07T14:49:58.629Z,36.5
2022-08-07T14:51:34.982Z,37
2022-08-07T14:53:11.327Z,37
2022-08-07T14:54:47.645Z,37
2022-08-07T14:56:23.951Z,37.5
2022-08-07T14:58:00.294Z,37.5
2022-08-07T14:59:35.629Z,37.5
2022-08-07T15:01:11.958Z,37
2022-08-07T15:02:48.302Z,37.5
2022-08-07T15:04:24.627Z,37.5
2022-08-07T15:06:00.956Z,37
2022-08-07T15:07:37.291Z,37
2022-08-07T15:09:13.621Z,36.5
2022-08-07T15:10:49.947Z,37
2022-08-07T15:12:26.285Z,37
2022-08-07T15:14:02.609Z,36.5
2022-08-07T15:15:38.985Z,36.5
2022-08-07T15:17:15.279Z,37
2022-08-07T15:18:51.609Z,37
2022-08-07T15:20:27.927Z,37
2022-08-07T15:22:03.285Z,37
2022-08-07T15:23:39.607Z,37
2022-08-07T15:25:15.950Z,37.5
2022-08-07T15:26:52.282Z,37.5
2022-08-07T15:28:28.598Z,37.5
2022-08-07T15:30:04.921Z,37
2022-08-07T15:31:57.308Z,37
2022-08-07T15:33:17.587Z,37
2022-08-07T15:34:53.949Z,37
2022-08-07T15:36:30.260Z,37
2022-08-07T15:38:06.593Z,37.5
2022-08-07T15:39:42.944Z,37.5
2022-08-07T15:41:19.254Z,37.5
2022-08-07T15:42:54.594Z,37
2022-08-07T15:44:30.937Z,37.5
2022-08-07T15:46:07.286Z,37.5
2022-08-07T15:47:43.584Z,36.5
2022-08-07T15:49:19.918Z,37
2022-08-07T15:50:56.262Z,36.5
2022-08-07T15:52:32.607Z,37
2022-08-07T15:54:08.931Z,37
2022-08-07T15:55:45.282Z,36.5
2022-08-07T15:57:21.573Z,37
2022-08-07T15:58:57.915Z,36.5
2022-08-07T16:00:34.274Z,37
2022-08-07T16:02:10.576Z,37
2022-08-07T16:03:45.918Z,37
2022-08-07T16:05:22.279Z,36.5
2022-08-07T16:06:58.562Z,37
2022-08-07T16:08:34.928Z,37
2022-08-07T16:10:11.261Z,37
2022-08-07T16:11:47.596Z,37
2022-08-07T16:13:23.906Z,37
2022-08-07T16:15:00.292Z,37
2022-08-07T16:16:36.563Z,37
2022-08-07T16:18:12.905Z,37.5
2022-08-07T16:19:49.216Z,37.5
2022-08-07T16:21:25.546Z,38
2022-08-07T16:23:01.901Z,38.5
2022-08-07T16:24:38.211Z,38
2022-08-07T16:26:13.558Z,38.5
2022-08-07T16:27:49.890Z,38.5
2022-08-07T16:29:26.221Z,38.5
2022-08-07T16:31:02.545Z,38.5
2022-08-07T16:32:38.900Z,38.5
2022-08-07T16:34:15.228Z,38
2022-08-07T16:35:51.541Z,38.5
2022-08-07T16:37:27.876Z,38.5
2022-08-07T16:39:04.202Z,38.5
2022-08-07T16:40:40.557Z,38.5
2022-08-07T16:42:16.860Z,38.5
2022-08-07T16:43:53.199Z,38
2022-08-07T16:45:29.551Z,38.5
2022-08-07T16:47:04.878Z,38.5
2022-08-07T16:48:41.214Z,38.5
2022-08-07T16:50:17.541Z,39
2022-08-07T16:51:53.874Z,38.5
2022-08-07T16:53:30.202Z,39
2022-08-07T16:55:06.529Z,39
2022-08-07T16:56:42.867Z,39
2022-08-07T16:58:19.190Z,39
2022-08-07T16:59:55.523Z,39
2022-08-07T17:01:31.845Z,39.5
2022-08-07T17:03:08.190Z,39.5
2022-08-07T17:04:44.522Z,39.5
2022-08-07T17:06:20.843Z,39.5
2022-08-07T17:07:57.173Z,40
2022-08-07T17:09:33.500Z,40
2022-08-07T17:11:08.861Z,40
2022-08-07T17:12:45.208Z,40
2022-08-07T17:14:21.510Z,40
2022-08-07T17:15:57.849Z,40
2022-08-07T17:17:34.170Z,39.5
2022-08-07T17:19:10.512Z,40
2022-08-07T17:20:46.840Z,40
2022-08-07T17:22:23.167Z,40
2022-08-07T17:23:59.509Z,39.5
2022-08-07T17:25:35.832Z,40
2022-08-07T17:27:12.168Z,39.5
2022-08-07T17:28:48.489Z,39.5
2022-08-07T17:30:24.839Z,39.5
2022-08-07T17:32:01.146Z,40
2022-08-07T17:33:36.502Z,40
2022-08-07T17:35:11.852Z,40
2022-08-07T17:36:48.210Z,40
2022-08-07T17:38:23.539Z,40
2022-08-07T17:39:59.863Z,40.5
2022-08-07T17:41:35.225Z,40
2022-08-07T17:43:10.581Z,40.5
2022-08-07T17:44:46.898Z,40.5
2022-08-07T17:46:23.235Z,40.5
2022-08-07T17:47:59.593Z,41
2022-08-07T17:49:35.892Z,41
2022-08-07T17:51:12.229Z,41
2022-08-07T17:52:48.600Z,41
2022-08-07T17:54:24.894Z,41.5
2022-08-07T17:56:01.224Z,41
2022-08-07T17:57:37.552Z,41.5
2022-08-07T17:59:13.875Z,41.5
2022-08-07T18:00:50.216Z,41.5
2022-08-07T18:02:26.554Z,41
2022-08-07T18:04:01.891Z,41.5
2022-08-07T18:05:38.225Z,41.5
2022-08-07T18:07:14.551Z,41.5
2022-08-07T18:08:50.886Z,42
2022-08-07T18:10:27.207Z,42
2022-08-07T18:12:03.537Z,42
2022-08-07T18:13:39.873Z,42
2022-08-07T18:15:16.206Z,42
2022-08-07T18:16:52.540Z,42.5
2022-08-07T18:18:28.863Z,42.5
2022-08-07T18:20:05.196Z,42.5
2022-08-07T18:21:41.566Z,43
2022-08-07T18:23:16.891Z,43
2022-08-07T18:24:53.213Z,43
2022-08-07T18:26:29.553Z,43
2022-08-07T18:28:04.888Z,43.5
2022-08-07T18:29:41.222Z,43.5
2022-08-07T18:31:17.555Z,43
2022-08-07T18:32:53.887Z,43
2022-08-07T18:34:30.212Z,43.5
2022-08-07T18:36:06.546Z,43.5
2022-08-07T18:37:41.908Z,43.5
2022-08-07T18:39:17.256Z,44
2022-08-07T18:40:53.588Z,44
2022-08-07T18:42:29.917Z,44
2022-08-07T18:44:06.258Z,44
2022-08-07T18:45:42.594Z,44.5
2022-08-07T18:47:18.908Z,44.5
2022-08-07T18:48:55.231Z,44.5
2022-08-07T18:50:31.569Z,45
2022-08-07T18:52:07.895Z,45
2022-08-07T18:53:44.233Z,45
2022-08-07T18:55:20.554Z,45.5
2022-08-07T18:56:56.891Z,45.5
2022-08-07T18:58:33.215Z,45.5
2022-08-07T19:00:09.541Z,46
2022-08-07T19:01:44.902Z,46
2022-08-07T19:03:21.221Z,46
2022-08-07T19:04:57.552Z,46.5
2022-08-07T19:06:33.889Z,46.5
2022-08-07T19:08:10.222Z,46.5
2022-08-07T19:09:46.550Z,46.5
2022-08-07T19:11:22.874Z,46.5
2022-08-07T19:12:59.223Z,47
2022-08-07T19:14:35.540Z,47
2022-08-07T19:16:11.869Z,47
2022-08-07T19:17:48.195Z,47
2022-08-07T19:19:24.520Z,47.5
2022-08-07T19:21:00.867Z,47.5
2022-08-07T19:22:37.194Z,47.5
2022-08-07T19:24:12.543Z,47.5
2022-08-07T19:25:48.873Z,48
2022-08-07T19:27:25.204Z,48
2022-08-07T19:29:01.544Z,48
2022-08-07T19:30:37.859Z,48.5
2022-08-07T19:32:14.192Z,48.5
2022-08-07T19:33:50.528Z,48.5
2022-08-07T19:35:26.853Z,49
2022-08-07T19:37:03.215Z,49
2022-08-07T19:38:39.515Z,49
2022-08-07T19:40:15.870Z,49
2022-08-07T19:41:52.176Z,49.5
2022-08-07T19:43:28.510Z,49.5
2022-08-07T19:45:04.840Z,49.5
2022-08-07T19:46:40.196Z,49.5
2022-08-07T19:48:16.515Z,49.5
2022-08-07T19:49:52.844Z,49.5
2022-08-07T19:51:29.195Z,49.5
2022-08-07T19:53:05.513Z,50
2022-08-07T19:54:41.846Z,50
2022-08-07T19:56:18.189Z,50
2022-08-07T19:57:54.508Z,50
2022-08-07T19:59:30.839Z,50.5
2022-08-07T20:01:06.197Z,50.5
2022-08-07T20:02:42.524Z,50.5
2022-08-07T20:04:18.847Z,50.5
2022-08-07T20:05:55.181Z,50.5
2022-08-07T20:07:31.512Z,50.5
2022-08-07T20:09:07.850Z,51
2022-08-07T20:10:44.170Z,51
2022-08-07T20:12:20.498Z,51
2022-08-07T20:13:56.840Z,51
2022-08-07T20:15:32.187Z,51
2022-08-07T20:17:07.544Z,51
2022-08-07T20:18:43.871Z,51.5
2022-08-07T20:20:20.203Z,51.5
2022-08-07T20:21:56.547Z,51.5
2022-08-07T20:23:32.857Z,51.5
2022-08-07T20:25:09.196Z,52
2022-08-07T20:26:44.558Z,52
2022-08-07T20:28:19.900Z,52
2022-08-07T20:29:56.237Z,52
2022-08-07T20:31:32.559Z,52
2022-08-07T20:33:08.896Z,52
2022-08-07T20:34:45.218Z,52.5
2022-08-07T20:36:21.551Z,52.5
2022-08-07T20:37:57.889Z,52.5
2022-08-07T20:39:34.211Z,52.5
2022-08-07T20:41:10.547Z,52.5
2022-08-07T20:42:46.874Z,52.5
2022-08-07T20:44:23.200Z,53
2022-08-07T20:45:59.567Z,53
2022-08-07T20:47:35.872Z,53
2022-08-07T20:49:11.205Z,53
2022-08-07T20:50:47.543Z,53
2022-08-07T20:52:23.879Z,53.5
2022-08-07T20:54:00.203Z,53.5
2022-08-07T20:55:36.536Z,53.5
2022-08-07T20:57:12.874Z,53.5
2022-08-07T20:58:49.201Z,53.5
2022-08-07T21:00:25.534Z,54
2022-08-07T21:02:01.860Z,54
2022-08-07T21:03:38.198Z,54
2022-08-07T21:05:14.532Z,54.5
2022-08-07T21:06:50.854Z,54.5
2022-08-07T21:08:27.192Z,54.5
2022-08-07T21:10:02.539Z,54.5
2022-08-07T21:11:38.860Z,54.5
2022-08-07T21:13:15.193Z,54.5
2022-08-07T21:14:51.534Z,55
2022-08-07T21:16:27.845Z,55
2022-08-07T21:18:04.181Z,55
2022-08-07T21:19:40.522Z,55
2022-08-07T21:21:16.854Z,55
2022-08-07T21:22:53.178Z,55
2022-08-07T21:24:29.509Z,55.5
2022-08-07T21:26:05.833Z,55.5
2022-08-07T21:27:42.160Z,55.5
2022-08-07T21:29:18.507Z,55.5
2022-08-07T21:30:53.840Z,55.5
2022-08-07T21:32:30.184Z,55.5
2022-08-07T21:34:06.515Z,56
2022-08-07T21:35:42.838Z,56
2022-08-07T21:37:19.165Z,56
2022-08-07T21:38:55.508Z,56
2022-08-07T21:40:31.825Z,56
2022-08-07T21:42:08.179Z,56.5
2022-08-07T21:43:44.493Z,56.5
2022-08-07T21:45:20.828Z,56.5
2022-08-07T21:46:57.150Z,56.5
2022-08-07T21:48:33.486Z,56.5
2022-08-07T21:50:09.814Z,56.5
2022-08-07T21:51:45.156Z,56.5
2022-08-07T21:53:21.495Z,57
2022-08-07T21:54:57.854Z,57
2022-08-07T21:56:34.156Z,57
2022-08-07T21:58:10.495Z,57
2022-08-07T21:59:46.818Z,57
2022-08-07T22:01:23.141Z,57.5
2022-08-07T22:02:59.484Z,57.5
2022-08-07T22:04:35.807Z,57.5
2022-08-07T22:06:12.136Z,57.5